Hercules — V7WL6 — position and weather

sailwx.info

Track history (hours):
 
Tides and Currents Weather Stations Pressure Air Temp Water Temp Dewpoint Dewpoint Depression Visibility Wind Speed Wind Dir Waves Ship Positions

Hercules

Last reported at 2017-Nov-18 14:51 UTC. Time now 2017-Dec-11 11:18 UTC.
Position N 01°14' E 103°26'.
Warning: this ship's position is 22 days out of date.

Length 189 m; draft 12.8 m.

Type: Cargo ship. MMSI: 538004331.

Date/timePositionNaut miles runAvg speedWind from/ knotsBaromVisibWave heightAir tempDewpointWater temp
2017-Nov-18 14:51N 01°14' E 103°26'410.2
2017-Nov-18 14:29N 01°13' E 103°30'510.0
2017-Nov-18 13:59N 01°12' E 103°35'4 7.9
2017-Nov-18 13:30N 01°11' E 103°39'4 8.6
2017-Nov-18 12:59N 01°09' E 103°43'4 8.0
2017-Nov-18 12:30N 01°10' E 103°46'5 9.4
2017-Nov-18 12:01N 01°12' E 103°51'4 8.9
2017-Nov-18 11:31N 01°14' E 103°55'4 7.4
2017-Nov-18 11:01N 01°16' E 103°58'3 5.0
2017-Nov-18 10:31N 01°17' E 103°60'1 0.1
2017-Nov-18 00:22N 01°17' E 103°59'1 2.8
2017-Nov-18 00:00N 01°16' E 103°59'  
Track history (hours):
 
Tides and Currents Weather Stations Pressure Air Temp Water Temp Dewpoint Dewpoint Depression Visibility Wind Speed Wind Dir Waves Ship Positions

Hercules

Last reported at 2017-Nov-18 14:51 UTC. Time now 2017-Dec-11 11:18 UTC.
Position N 01°14' E 103°26'.
Warning: this ship's position is 22 days out of date.

Length 189 m; draft 12.8 m.

Type: Cargo ship. MMSI: 538004331.

Date/timePositionNaut miles runAvg speedWind from/ knotsBaromVisibWave heightAir tempDewpointWater temp
2017-Nov-18 14:51N 01°14' E 103°26'410.2
2017-Nov-18 14:29N 01°13' E 103°30'510.0
2017-Nov-18 13:59N 01°12' E 103°35'4 7.9
2017-Nov-18 13:30N 01°11' E 103°39'4 8.6
2017-Nov-18 12:59N 01°09' E 103°43'4 8.0
2017-Nov-18 12:30N 01°10' E 103°46'5 9.4
2017-Nov-18 12:01N 01°12' E 103°51'4 8.9
2017-Nov-18 11:31N 01°14' E 103°55'4 7.4
2017-Nov-18 11:01N 01°16' E 103°58'3 5.0
2017-Nov-18 10:31N 01°17' E 103°60'1 0.1
2017-Nov-18 00:22N 01°17' E 103°59'1 2.8
2017-Nov-18 00:00N 01°16' E 103°59'  

Dump ship's entire track history